createdAt,value
2017-09-17T00:01:29.671Z,8.30
2017-09-17T00:03:57.931Z,8.10
2017-09-17T00:06:26.232Z,8.10
2017-09-17T00:08:55.261Z,8.00
2017-09-17T00:11:23.533Z,7.90
2017-09-17T00:13:51.809Z,7.90
2017-09-17T00:16:20.075Z,7.90
2017-09-17T00:18:49.924Z,7.80
2017-09-17T00:21:18.172Z,7.80
2017-09-17T00:23:46.443Z,7.90
2017-09-17T00:26:14.720Z,7.90
2017-09-17T00:28:42.984Z,7.90
2017-09-17T00:31:11.389Z,7.90
2017-09-17T00:33:39.694Z,7.80
2017-09-17T00:36:07.952Z,7.80
2017-09-17T00:38:36.237Z,7.90
2017-09-17T00:41:04.557Z,7.90
2017-09-17T00:43:33.601Z,7.80
2017-09-17T00:46:01.875Z,7.80
2017-09-17T00:48:30.247Z,7.90
2017-09-17T00:50:58.501Z,7.90
2017-09-17T00:53:27.295Z,7.90
2017-09-17T00:55:56.347Z,7.90
2017-09-17T00:58:24.610Z,7.90
2017-09-17T01:00:52.931Z,8.00
2017-09-17T01:03:21.213Z,8.20
2017-09-17T01:05:49.525Z,8.30
2017-09-17T01:08:18.560Z,8.20
2017-09-17T01:10:47.044Z,8.20
2017-09-17T01:13:15.322Z,8.30
2017-09-17T01:15:44.347Z,8.20
2017-09-17T01:18:12.633Z,8.20
2017-09-17T01:20:40.916Z,8.30
2017-09-17T01:23:09.994Z,8.30
2017-09-17T01:25:38.260Z,8.30
2017-09-17T01:28:07.287Z,8.50
2017-09-17T01:30:35.564Z,8.40
2017-09-17T01:33:03.828Z,8.50
2017-09-17T01:35:32.130Z,8.40
2017-09-17T01:38:00.430Z,8.40
2017-09-17T01:40:28.680Z,8.40
2017-09-17T01:42:56.983Z,8.40
2017-09-17T01:45:25.271Z,8.40
2017-09-17T01:47:53.595Z,8.50
2017-09-17T01:50:21.848Z,8.60
2017-09-17T01:52:50.123Z,8.70
2017-09-17T01:55:18.421Z,8.70
2017-09-17T01:57:46.687Z,8.70
2017-09-17T02:00:15.007Z,8.60
2017-09-17T02:02:43.276Z,8.60
2017-09-17T02:05:12.304Z,8.70
2017-09-17T02:07:40.608Z,8.60
2017-09-17T02:10:09.638Z,8.50
2017-09-17T02:12:37.945Z,8.40
2017-09-17T02:15:06.208Z,8.40
2017-09-17T02:17:34.471Z,8.40
2017-09-17T02:20:02.760Z,8.50
2017-09-17T02:22:31.030Z,8.60
2017-09-17T02:24:59.345Z,8.60
2017-09-17T02:27:27.651Z,8.40
2017-09-17T02:29:55.924Z,8.50
2017-09-17T02:32:24.252Z,8.50
2017-09-17T02:34:52.505Z,8.50
2017-09-17T02:37:20.819Z,8.60
2017-09-17T02:39:49.088Z,8.50
2017-09-17T02:42:17.351Z,8.60
2017-09-17T02:44:45.632Z,8.70
2017-09-17T02:47:13.911Z,8.70
2017-09-17T02:49:42.380Z,8.70
2017-09-17T02:52:10.643Z,8.60
2017-09-17T02:54:38.900Z,8.70
2017-09-17T02:57:07.637Z,8.70
2017-09-17T02:59:35.902Z,8.70
2017-09-17T03:02:04.497Z,8.70
2017-09-17T03:04:32.764Z,8.60
2017-09-17T03:07:01.040Z,8.60
2017-09-17T03:09:30.098Z,8.50
2017-09-17T03:11:58.373Z,8.40
2017-09-17T03:14:27.427Z,8.60
2017-09-17T03:16:55.680Z,8.50
2017-09-17T03:19:24.085Z,8.70
2017-09-17T03:21:53.125Z,8.60
2017-09-17T03:24:21.407Z,8.60
2017-09-17T03:26:49.685Z,8.60
2017-09-17T03:29:18.719Z,8.60
2017-09-17T03:31:47.028Z,8.60
2017-09-17T03:34:16.368Z,8.80
2017-09-17T03:36:44.636Z,8.70
2017-09-17T03:39:12.921Z,8.80
2017-09-17T03:41:41.192Z,8.80
2017-09-17T03:44:10.241Z,8.80
2017-09-17T03:46:38.540Z,8.70
2017-09-17T03:49:08.111Z,8.90
2017-09-17T03:51:37.172Z,9.00
2017-09-17T03:54:05.440Z,8.90
2017-09-17T03:56:33.738Z,9.00
2017-09-17T03:59:02.764Z,8.90
2017-09-17T04:01:31.040Z,8.90
2017-09-17T04:04:00.840Z,8.90
2017-09-17T04:06:29.111Z,8.90
2017-09-17T04:08:57.408Z,9.00
2017-09-17T04:11:26.440Z,9.10
2017-09-17T04:13:54.722Z,9.10
2017-09-17T04:16:23.011Z,9.20
2017-09-17T04:18:51.268Z,9.20
2017-09-17T04:21:19.580Z,9.10
2017-09-17T04:23:47.853Z,9.10
2017-09-17T04:26:16.116Z,9.00
2017-09-17T04:28:44.399Z,8.90
2017-09-17T04:31:13.421Z,8.90
2017-09-17T04:33:41.852Z,8.90
2017-09-17T04:36:10.925Z,8.90
2017-09-17T04:38:39.977Z,8.90
2017-09-17T04:41:08.566Z,8.90
2017-09-17T04:43:37.611Z,9.00
2017-09-17T04:46:06.108Z,8.90
2017-09-17T04:48:35.162Z,9.10
2017-09-17T04:51:03.416Z,9.00
2017-09-17T04:53:31.699Z,9.10
2017-09-17T04:55:59.979Z,9.00
2017-09-17T04:58:29.156Z,8.90
2017-09-17T05:00:58.190Z,9.00
2017-09-17T05:03:26.452Z,8.90
2017-09-17T05:05:54.757Z,9.10
2017-09-17T05:08:23.800Z,9.10
2017-09-17T05:10:52.097Z,9.00
2017-09-17T05:13:21.148Z,9.00
2017-09-17T05:15:49.416Z,9.00
2017-09-17T05:18:17.696Z,9.00
2017-09-17T05:20:46.728Z,9.10
2017-09-17T05:23:15.013Z,9.00
2017-09-17T05:25:43.272Z,9.00
2017-09-17T05:28:11.588Z,9.00
2017-09-17T05:30:39.864Z,9.00
2017-09-17T05:33:08.136Z,9.00
2017-09-17T05:35:37.236Z,9.20
2017-09-17T05:38:05.498Z,9.10
2017-09-17T05:40:33.799Z,9.20
2017-09-17T05:43:02.833Z,9.30
2017-09-17T05:45:31.100Z,9.20
2017-09-17T05:47:59.382Z,9.30
2017-09-17T05:50:27.959Z,9.30
2017-09-17T05:52:57.012Z,9.40
2017-09-17T05:55:25.279Z,9.30
2017-09-17T05:57:53.571Z,9.40
2017-09-17T06:00:22.592Z,9.50
2017-09-17T06:02:50.887Z,9.50
2017-09-17T06:05:19.172Z,9.60
2017-09-17T06:07:48.218Z,9.60
2017-09-17T06:10:16.510Z,9.60
2017-09-17T06:12:45.538Z,9.80
2017-09-17T06:15:13.856Z,9.70
2017-09-17T06:17:42.884Z,9.80
2017-09-17T06:20:11.280Z,9.70
2017-09-17T06:22:39.576Z,9.80
2017-09-17T06:25:07.848Z,9.80
2017-09-17T06:27:36.154Z,9.90
2017-09-17T06:30:04.408Z,9.90
2017-09-17T06:32:32.691Z,9.90
2017-09-17T06:35:00.966Z,9.80
2017-09-17T06:37:29.996Z,9.70
2017-09-17T06:39:58.308Z,9.70
2017-09-17T06:42:27.333Z,9.80
2017-09-17T06:44:55.608Z,9.70
2017-09-17T06:47:23.889Z,9.80
2017-09-17T06:49:52.164Z,9.80
2017-09-17T06:52:21.250Z,9.80
2017-09-17T06:54:50.337Z,9.90
2017-09-17T06:57:19.355Z,9.90
2017-09-17T06:59:47.641Z,9.90
2017-09-17T07:02:15.908Z,10.00
2017-09-17T07:04:44.220Z,10.10
2017-09-17T07:07:12.498Z,10.20
2017-09-17T07:09:41.534Z,10.40
2017-09-17T07:12:09.819Z,10.30
2017-09-17T07:14:38.099Z,10.50
2017-09-17T07:17:06.444Z,10.60
2017-09-17T07:19:34.716Z,10.60
2017-09-17T07:22:02.988Z,10.60
2017-09-17T07:24:31.403Z,10.60
2017-09-17T07:26:59.667Z,10.70
2017-09-17T07:29:27.960Z,10.80
2017-09-17T07:31:56.284Z,10.80
2017-09-17T07:34:24.597Z,10.90
2017-09-17T07:36:53.026Z,10.80
2017-09-17T07:39:21.856Z,10.80
2017-09-17T07:41:50.922Z,10.80
2017-09-17T07:44:19.200Z,10.70
2017-09-17T07:46:48.273Z,10.90
2017-09-17T07:49:17.323Z,10.90
2017-09-17T07:51:45.616Z,10.90
2017-09-17T07:54:13.892Z,11.10
2017-09-17T07:56:43.314Z,11.10
2017-09-17T07:59:12.402Z,11.20
2017-09-17T08:01:41.540Z,11.30
2017-09-17T08:04:10.975Z,11.30
2017-09-17T08:06:40.082Z,11.20
2017-09-17T08:09:09.482Z,11.20
2017-09-17T08:11:37.765Z,11.30
2017-09-17T08:14:06.862Z,11.30
2017-09-17T08:16:37.133Z,11.10
2017-09-17T08:19:07.062Z,11.10
2017-09-17T08:21:38.988Z,11.10
2017-09-17T08:24:07.360Z,11.00
2017-09-17T08:26:35.636Z,11.10
2017-09-17T08:29:03.924Z,11.20
2017-09-17T08:31:33.044Z,11.40
2017-09-17T08:34:01.341Z,11.50
2017-09-17T08:36:29.672Z,11.60
2017-09-17T08:38:58.553Z,11.80
2017-09-17T08:41:26.876Z,12.00
2017-09-17T08:43:55.144Z,12.10
2017-09-17T08:46:24.234Z,12.10
2017-09-17T08:48:52.707Z,12.30
2017-09-17T08:51:21.173Z,12.40
2017-09-17T08:53:49.486Z,12.50
2017-09-17T08:56:18.829Z,12.80
2017-09-17T08:58:47.152Z,12.80
2017-09-17T09:01:15.448Z,13.00
2017-09-17T09:03:43.880Z,13.00
2017-09-17T09:06:13.064Z,13.30
2017-09-17T09:08:41.341Z,13.60
2017-09-17T09:11:09.664Z,13.80
2017-09-17T09:13:38.136Z,13.90
2017-09-17T09:16:06.553Z,13.90
2017-09-17T09:18:34.856Z,13.80
2017-09-17T09:21:03.169Z,13.60
2017-09-17T09:23:31.468Z,13.60
2017-09-17T09:26:00.509Z,13.60
2017-09-17T09:28:28.796Z,13.60
2017-09-17T09:30:57.087Z,13.60
2017-09-17T09:33:32.127Z,13.60
2017-09-17T09:36:00.428Z,13.70
2017-09-17T09:38:28.728Z,13.80
2017-09-17T09:40:57.061Z,13.80
2017-09-17T09:43:26.124Z,13.80
2017-09-17T09:45:54.396Z,13.70
2017-09-17T09:48:22.905Z,13.70
2017-09-17T09:50:53.408Z,13.90
2017-09-17T09:53:21.711Z,13.90
2017-09-17T09:55:50.816Z,14.00
2017-09-17T09:58:19.888Z,14.10
2017-09-17T10:00:48.187Z,14.10
2017-09-17T10:03:17.221Z,13.90
2017-09-17T10:05:45.490Z,13.80
2017-09-17T10:08:13.779Z,13.90
2017-09-17T10:10:42.056Z,14.00
2017-09-17T10:13:10.368Z,14.40
2017-09-17T10:15:38.650Z,14.70
2017-09-17T10:18:06.932Z,15.00
2017-09-17T10:20:35.990Z,14.60
2017-09-17T10:23:04.277Z,14.60
2017-09-17T10:25:32.583Z,14.60
2017-09-17T10:28:01.612Z,14.70
2017-09-17T10:30:29.919Z,14.70
2017-09-17T10:32:58.255Z,15.10
2017-09-17T10:35:26.532Z,15.20
2017-09-17T10:37:54.819Z,15.50
2017-09-17T10:40:23.119Z,15.60
2017-09-17T10:42:51.467Z,15.40
2017-09-17T10:45:19.756Z,15.30
2017-09-17T10:47:48.098Z,15.30
2017-09-17T10:50:16.751Z,15.60
2017-09-17T10:52:45.816Z,15.80
2017-09-17T10:55:14.108Z,15.80
2017-09-17T10:57:42.376Z,16.10
2017-09-17T11:00:10.697Z,16.40
2017-09-17T11:02:38.978Z,16.40
2017-09-17T11:05:07.274Z,16.40
2017-09-17T11:07:35.559Z,16.20
2017-09-17T11:10:03.852Z,16.50
2017-09-17T11:12:32.173Z,16.90
2017-09-17T11:15:01.211Z,17.60
2017-09-17T11:17:29.488Z,17.50
2017-09-17T11:19:57.796Z,18.00
2017-09-17T11:22:26.076Z,18.40
2017-09-17T11:24:54.364Z,18.50
2017-09-17T11:27:22.661Z,18.40
2017-09-17T11:29:51.724Z,18.40
2017-09-17T11:32:20.026Z,18.40
2017-09-17T11:34:48.356Z,18.10
2017-09-17T11:37:17.439Z,17.50
2017-09-17T11:39:45.706Z,17.40
2017-09-17T11:42:14.760Z,17.10
2017-09-17T11:44:43.033Z,17.00
2017-09-17T11:47:11.325Z,17.20
2017-09-17T11:49:39.595Z,17.10
2017-09-17T11:52:07.915Z,17.10
2017-09-17T11:54:37.008Z,17.10
2017-09-17T11:57:06.072Z,17.00
2017-09-17T11:59:34.347Z,16.90
2017-09-17T12:02:03.441Z,16.70
2017-09-17T12:04:32.509Z,16.50
2017-09-17T12:07:01.558Z,16.20
2017-09-17T12:09:29.868Z,16.10
2017-09-17T12:11:58.152Z,15.90
2017-09-17T12:14:26.643Z,15.80
2017-09-17T12:16:54.931Z,15.60
2017-09-17T12:19:23.212Z,15.40
2017-09-17T12:21:52.300Z,14.80
2017-09-17T12:24:20.576Z,14.70
2017-09-17T12:26:48.858Z,14.40
2017-09-17T12:29:17.142Z,14.30
2017-09-17T12:31:45.409Z,14.10
2017-09-17T12:34:13.896Z,14.00
2017-09-17T12:36:42.944Z,13.90
2017-09-17T12:39:11.221Z,13.90
2017-09-17T12:41:39.502Z,13.90
2017-09-17T12:44:08.544Z,13.70
2017-09-17T12:46:36.843Z,13.70
2017-09-17T12:49:05.884Z,13.70
2017-09-17T12:51:34.161Z,13.70
2017-09-17T12:54:02.543Z,14.00
2017-09-17T12:56:30.805Z,14.20
2017-09-17T12:58:59.877Z,15.10
2017-09-17T13:01:29.372Z,16.10
2017-09-17T13:03:58.422Z,17.20
2017-09-17T13:06:27.109Z,17.20
2017-09-17T13:08:57.532Z,18.10
2017-09-17T13:11:27.260Z,18.70
2017-09-17T13:13:57.551Z,18.80
2017-09-17T13:16:26.592Z,18.30
2017-09-17T13:18:54.905Z,18.20
2017-09-17T13:21:23.195Z,18.60
2017-09-17T13:23:52.335Z,19.20
2017-09-17T13:26:22.135Z,19.80
2017-09-17T13:28:50.569Z,20.10
2017-09-17T13:31:21.516Z,20.60
2017-09-17T13:33:50.405Z,20.50
2017-09-17T13:36:24.157Z,20.60
2017-09-17T13:38:52.939Z,20.70
2017-09-17T13:41:21.968Z,21.00
2017-09-17T13:43:50.264Z,20.90
2017-09-17T13:46:18.561Z,20.80
2017-09-17T13:48:46.846Z,20.50
2017-09-17T13:51:15.321Z,20.50
2017-09-17T13:53:44.365Z,20.30
2017-09-17T13:56:12.640Z,20.30
2017-09-17T13:58:40.964Z,20.40
2017-09-17T14:01:11.050Z,20.10
2017-09-17T14:03:39.349Z,19.60
2017-09-17T14:06:08.448Z,19.20
2017-09-17T14:08:42.556Z,18.80
2017-09-17T14:11:13.544Z,19.00
2017-09-17T14:13:41.839Z,19.00
2017-09-17T14:16:10.148Z,19.00
2017-09-17T14:18:39.228Z,20.00
2017-09-17T14:21:09.037Z,20.50
2017-09-17T14:23:37.323Z,20.50
2017-09-17T14:26:05.647Z,20.90
2017-09-17T14:28:33.918Z,21.10
2017-09-17T14:31:02.357Z,21.50
2017-09-17T14:33:31.412Z,21.90
2017-09-17T14:35:59.805Z,21.90
2017-09-17T14:38:28.101Z,21.90
2017-09-17T14:40:58.044Z,21.40
2017-09-17T14:43:27.134Z,21.60
2017-09-17T14:45:56.175Z,21.70
2017-09-17T14:48:24.464Z,21.60
2017-09-17T14:50:52.760Z,21.60
2017-09-17T14:53:21.836Z,21.40
2017-09-17T14:55:52.061Z,21.80
2017-09-17T14:58:21.097Z,21.90
2017-09-17T15:00:49.380Z,21.80
2017-09-17T15:03:17.688Z,22.30
2017-09-17T15:05:45.972Z,22.20
2017-09-17T15:08:14.310Z,22.30
2017-09-17T15:10:42.579Z,21.90
2017-09-17T15:13:10.864Z,21.30
2017-09-17T15:15:39.160Z,21.30
2017-09-17T15:18:08.230Z,21.50
2017-09-17T15:20:37.296Z,20.50
2017-09-17T15:23:05.615Z,21.40
2017-09-17T15:25:33.907Z,21.60
2017-09-17T15:28:02.175Z,21.50
2017-09-17T15:30:30.488Z,20.80
2017-09-17T15:32:58.789Z,20.10
2017-09-17T15:35:28.635Z,19.50
2017-09-17T15:37:56.908Z,19.50
2017-09-17T15:40:25.940Z,19.70
2017-09-17T15:42:54.233Z,19.70
2017-09-17T15:45:23.267Z,19.90
2017-09-17T15:47:51.601Z,19.90
2017-09-17T15:50:19.885Z,19.50
2017-09-17T15:52:48.167Z,19.20
2017-09-17T15:55:16.464Z,19.10
2017-09-17T15:57:45.513Z,18.70
2017-09-17T16:00:14.316Z,18.60
2017-09-17T16:02:43.352Z,18.40
2017-09-17T16:05:11.627Z,18.30
2017-09-17T16:07:40.901Z,18.10
2017-09-17T16:10:09.182Z,17.80
2017-09-17T16:12:37.480Z,17.70
2017-09-17T16:15:05.809Z,17.50
2017-09-17T16:17:34.697Z,17.40
2017-09-17T16:20:02.967Z,17.30
2017-09-17T16:22:32.009Z,16.90
2017-09-17T16:25:00.309Z,16.90
2017-09-17T16:27:29.357Z,16.80
2017-09-17T16:29:57.684Z,16.70
2017-09-17T16:32:25.963Z,16.70
2017-09-17T16:34:54.252Z,16.60
2017-09-17T16:37:22.547Z,16.50
2017-09-17T16:39:50.823Z,16.20
2017-09-17T16:42:19.143Z,16.10
2017-09-17T16:44:47.420Z,16.00
2017-09-17T16:47:16.456Z,15.50
2017-09-17T16:49:44.760Z,15.50
2017-09-17T16:52:13.788Z,15.00
2017-09-17T16:54:42.403Z,14.90
2017-09-17T16:57:10.676Z,14.80
2017-09-17T16:59:38.956Z,14.60
2017-09-17T17:02:07.280Z,14.50
2017-09-17T17:04:35.572Z,14.40
2017-09-17T17:07:04.011Z,14.20
2017-09-17T17:09:33.213Z,14.00
2017-09-17T17:12:02.249Z,13.90
2017-09-17T17:14:30.528Z,13.80
2017-09-17T17:16:58.816Z,13.80
2017-09-17T17:19:27.989Z,13.60
2017-09-17T17:21:57.029Z,13.50
2017-09-17T17:24:25.320Z,13.50
2017-09-17T17:26:53.616Z,13.40
2017-09-17T17:29:21.896Z,13.20
2017-09-17T17:31:50.196Z,13.30
2017-09-17T17:34:18.476Z,13.10
2017-09-17T17:36:46.748Z,12.90
2017-09-17T17:39:15.084Z,12.80
2017-09-17T17:41:43.362Z,12.70
2017-09-17T17:44:11.682Z,12.70
2017-09-17T17:46:39.993Z,12.80
2017-09-17T17:49:08.265Z,12.80
2017-09-17T17:51:36.545Z,12.70
2017-09-17T17:54:05.796Z,12.60
2017-09-17T17:56:34.105Z,12.50
2017-09-17T17:59:03.167Z,12.20
2017-09-17T18:01:31.465Z,12.20
2017-09-17T18:03:59.760Z,12.20
2017-09-17T18:06:28.029Z,12.10
2017-09-17T18:08:56.336Z,12.00
2017-09-17T18:11:25.381Z,11.90
2017-09-17T18:13:53.672Z,11.80
2017-09-17T18:16:22.728Z,11.90
2017-09-17T18:18:51.006Z,11.90
2017-09-17T18:21:19.321Z,11.90
2017-09-17T18:23:47.603Z,11.80
2017-09-17T18:26:15.867Z,11.70
2017-09-17T18:28:44.148Z,11.60
2017-09-17T18:31:13.192Z,11.60
2017-09-17T18:33:42.508Z,11.50
2017-09-17T18:36:11.541Z,11.40
2017-09-17T18:38:40.140Z,11.40
2017-09-17T18:41:08.445Z,11.50
2017-09-17T18:43:37.172Z,11.40
2017-09-17T18:46:05.504Z,11.40
2017-09-17T18:48:33.821Z,11.30
2017-09-17T18:51:08.631Z,11.10
2017-09-17T18:53:36.930Z,11.10
2017-09-17T18:56:05.832Z,11.00
2017-09-17T18:58:34.121Z,11.00
2017-09-17T19:01:03.217Z,10.90
2017-09-17T19:03:32.280Z,10.90
2017-09-17T19:06:00.631Z,10.90
2017-09-17T19:08:29.116Z,11.00
2017-09-17T19:10:57.380Z,10.90
2017-09-17T19:13:26.412Z,10.90
2017-09-17T19:15:54.709Z,10.80
2017-09-17T19:18:22.975Z,10.80
2017-09-17T19:20:51.293Z,10.80
2017-09-17T19:23:19.560Z,10.70
2017-09-17T19:25:47.831Z,10.70
2017-09-17T19:28:16.120Z,10.70
2017-09-17T19:30:44.393Z,10.60
2017-09-17T19:33:13.484Z,10.50
2017-09-17T19:35:41.784Z,10.50
2017-09-17T19:38:10.047Z,10.50
2017-09-17T19:40:38.327Z,10.50
2017-09-17T19:43:06.616Z,10.60
2017-09-17T19:45:35.062Z,10.60
2017-09-17T19:48:03.312Z,10.60
2017-09-17T19:50:31.600Z,10.60
2017-09-17T19:52:59.876Z,10.70
2017-09-17T19:55:28.183Z,10.70
2017-09-17T19:57:56.468Z,10.60
2017-09-17T20:00:24.845Z,10.40
2017-09-17T20:02:53.112Z,10.40
2017-09-17T20:05:22.148Z,10.30
2017-09-17T20:07:50.433Z,10.20
2017-09-17T20:10:18.704Z,10.30
2017-09-17T20:12:47.013Z,10.30
2017-09-17T20:15:15.284Z,10.20
2017-09-17T20:17:43.812Z,10.10
2017-09-17T20:20:12.076Z,10.00
2017-09-17T20:22:40.346Z,9.90
2017-09-17T20:25:08.622Z,9.80
2017-09-17T20:27:36.885Z,9.70
2017-09-17T20:30:05.289Z,9.70
2017-09-17T20:32:33.564Z,9.70
2017-09-17T20:35:01.830Z,9.70
2017-09-17T20:37:30.102Z,9.70
2017-09-17T20:39:59.141Z,9.60
2017-09-17T20:42:27.439Z,9.50
2017-09-17T20:44:55.706Z,9.50
2017-09-17T20:47:24.049Z,9.50
2017-09-17T20:49:52.307Z,9.50
2017-09-17T20:52:20.612Z,9.40
2017-09-17T20:54:50.475Z,9.40
2017-09-17T20:57:18.932Z,9.40
2017-09-17T20:59:47.254Z,9.40
2017-09-17T21:02:15.504Z,9.40
2017-09-17T21:04:43.825Z,9.30
2017-09-17T21:07:12.088Z,9.30
2017-09-17T21:09:40.375Z,9.30
2017-09-17T21:12:09.449Z,9.50
2017-09-17T21:14:38.483Z,9.60
2017-09-17T21:17:06.797Z,9.50
2017-09-17T21:19:35.856Z,9.60
2017-09-17T21:22:05.012Z,9.60
2017-09-17T21:24:35.121Z,9.40
2017-09-17T21:27:03.831Z,9.40
2017-09-17T21:29:32.721Z,9.40
2017-09-17T21:32:01.763Z,9.40
2017-09-17T21:34:30.033Z,9.30
2017-09-17T21:36:58.307Z,9.50
2017-09-17T21:39:27.340Z,9.70
2017-09-17T21:41:55.658Z,9.60
2017-09-17T21:44:23.959Z,9.70
2017-09-17T21:46:52.208Z,9.70
2017-09-17T21:49:20.476Z,9.60
2017-09-17T21:51:48.732Z,9.40
2017-09-17T21:54:17.236Z,9.20
2017-09-17T21:56:45.596Z,9.10
2017-09-17T21:59:14.727Z,8.90
2017-09-17T22:01:43.036Z,8.90
2017-09-17T22:04:11.291Z,8.90
2017-09-17T22:06:39.591Z,8.90
2017-09-17T22:09:07.853Z,8.90
2017-09-17T22:11:36.140Z,8.80
2017-09-17T22:14:04.429Z,8.80
2017-09-17T22:16:32.696Z,8.70
2017-09-17T22:19:01.084Z,8.60
2017-09-17T22:21:30.108Z,8.50
2017-09-17T22:23:58.408Z,8.50
2017-09-17T22:26:26.668Z,8.50
2017-09-17T22:28:54.941Z,8.50
2017-09-17T22:31:23.230Z,8.50
2017-09-17T22:33:51.530Z,8.50
2017-09-17T22:36:20.062Z,8.40
2017-09-17T22:38:48.357Z,8.40
2017-09-17T22:41:16.616Z,8.30
2017-09-17T22:43:44.940Z,8.30
2017-09-17T22:46:14.092Z,8.20
2017-09-17T22:48:42.563Z,8.10
2017-09-17T22:51:10.820Z,8.20
2017-09-17T22:53:39.084Z,8.20
2017-09-17T22:56:08.132Z,8.20
2017-09-17T22:58:36.403Z,8.10
2017-09-17T23:01:04.896Z,8.20
2017-09-17T23:03:33.146Z,8.20
2017-09-17T23:06:02.185Z,8.10
2017-09-17T23:08:30.499Z,8.10
2017-09-17T23:10:59.528Z,8.40
2017-09-17T23:13:29.281Z,8.40
2017-09-17T23:15:58.300Z,8.60
2017-09-17T23:18:26.576Z,8.50
2017-09-17T23:20:54.851Z,8.60
2017-09-17T23:23:23.116Z,8.70
2017-09-17T23:25:51.450Z,8.70
2017-09-17T23:28:19.711Z,8.60
2017-09-17T23:30:48.012Z,8.70
2017-09-17T23:33:16.296Z,8.70
2017-09-17T23:35:45.429Z,8.90
2017-09-17T23:38:13.935Z,8.80
2017-09-17T23:40:42.956Z,8.80
2017-09-17T23:43:11.217Z,8.70
2017-09-17T23:45:39.487Z,8.80
2017-09-17T23:48:07.756Z,8.80
2017-09-17T23:50:36.253Z,8.80
2017-09-17T23:53:05.284Z,8.80
2017-09-17T23:55:33.546Z,8.70
2017-09-17T23:58:01.860Z,8.80
